sensor_id;sensor_type;location;lat;lon;timestamp;P1;durP1;ratioP1;P2;durP2;ratioP2
23179;SDS011;11758;45.756;11.432;2023-06-22T00:00:49;21.55;;;14.13;;
23179;SDS011;11758;45.756;11.432;2023-06-22T00:03:23;20.00;;;16.05;;
23179;SDS011;11758;45.756;11.432;2023-06-22T00:05:55;20.65;;;13.93;;
23179;SDS011;11758;45.756;11.432;2023-06-22T00:08:21;27.40;;;14.20;;
23179;SDS011;11758;45.756;11.432;2023-06-22T00:10:47;17.60;;;13.27;;
23179;SDS011;11758;45.756;11.432;2023-06-22T00:16:12;23.48;;;15.77;;
23179;SDS011;11758;45.756;11.432;2023-06-22T00:18:38;23.13;;;14.07;;
23179;SDS011;11758;45.756;11.432;2023-06-22T00:21:05;19.27;;;14.88;;
23179;SDS011;11758;45.756;11.432;2023-06-22T00:23:31;19.95;;;13.63;;
23179;SDS011;11758;45.756;11.432;2023-06-22T00:25:59;17.92;;;14.05;;
23179;SDS011;11758;45.756;11.432;2023-06-22T00:28:25;23.77;;;14.55;;
23179;SDS011;11758;45.756;11.432;2023-06-22T00:30:51;25.83;;;14.18;;
23179;SDS011;11758;45.756;11.432;2023-06-22T00:33:17;20.95;;;14.88;;
23179;SDS011;11758;45.756;11.432;2023-06-22T00:35:43;19.58;;;14.77;;
23179;SDS011;11758;45.756;11.432;2023-06-22T00:38:10;24.63;;;16.48;;
23179;SDS011;11758;45.756;11.432;2023-06-22T00:40:36;21.50;;;15.85;;
23179;SDS011;11758;45.756;11.432;2023-06-22T00:43:02;19.73;;;16.58;;
23179;SDS011;11758;45.756;11.432;2023-06-22T00:45:29;22.63;;;17.10;;
23179;SDS011;11758;45.756;11.432;2023-06-22T00:47:56;23.33;;;16.45;;
23179;SDS011;11758;45.756;11.432;2023-06-22T00:50:23;18.60;;;14.75;;
23179;SDS011;11758;45.756;11.432;2023-06-22T00:52:56;19.75;;;15.38;;
23179;SDS011;11758;45.756;11.432;2023-06-22T00:55:23;16.40;;;14.35;;
23179;SDS011;11758;45.756;11.432;2023-06-22T00:57:51;19.23;;;15.10;;
23179;SDS011;11758;45.756;11.432;2023-06-22T01:00:20;20.05;;;15.50;;
23179;SDS011;11758;45.756;11.432;2023-06-22T01:02:49;18.67;;;15.35;;
23179;SDS011;11758;45.756;11.432;2023-06-22T01:05:20;22.88;;;16.20;;
23179;SDS011;11758;45.756;11.432;2023-06-22T01:10:27;22.23;;;17.08;;
23179;SDS011;11758;45.756;11.432;2023-06-22T01:12:55;17.95;;;15.57;;
23179;SDS011;11758;45.756;11.432;2023-06-22T01:15:25;17.35;;;15.02;;
23179;SDS011;11758;45.756;11.432;2023-06-22T01:17:54;21.65;;;16.05;;
23179;SDS011;11758;45.756;11.432;2023-06-22T01:20:22;20.98;;;15.43;;
23179;SDS011;11758;45.756;11.432;2023-06-22T01:25:26;26.77;;;15.85;;
23179;SDS011;11758;45.756;11.432;2023-06-22T01:30:40;21.80;;;16.50;;
23179;SDS011;11758;45.756;11.432;2023-06-22T01:33:07;27.48;;;17.23;;
23179;SDS011;11758;45.756;11.432;2023-06-22T01:35:35;25.80;;;16.38;;
23179;SDS011;11758;45.756;11.432;2023-06-22T01:38:02;20.15;;;16.02;;
23179;SDS011;11758;45.756;11.432;2023-06-22T01:40:28;22.88;;;17.27;;
23179;SDS011;11758;45.756;11.432;2023-06-22T01:42:55;25.23;;;18.02;;
23179;SDS011;11758;45.756;11.432;2023-06-22T01:45:22;23.15;;;17.95;;
23179;SDS011;11758;45.756;11.432;2023-06-22T01:47:48;21.45;;;16.95;;
23179;SDS011;11758;45.756;11.432;2023-06-22T01:50:14;18.73;;;16.15;;
23179;SDS011;11758;45.756;11.432;2023-06-22T01:52:40;21.98;;;16.77;;
23179;SDS011;11758;45.756;11.432;2023-06-22T01:55:07;24.90;;;17.65;;
23179;SDS011;11758;45.756;11.432;2023-06-22T01:57:33;26.77;;;16.80;;
23179;SDS011;11758;45.756;11.432;2023-06-22T02:00:00;22.13;;;17.27;;
23179;SDS011;11758;45.756;11.432;2023-06-22T02:02:28;22.67;;;16.42;;
23179;SDS011;11758;45.756;11.432;2023-06-22T02:04:57;24.63;;;17.10;;
23179;SDS011;11758;45.756;11.432;2023-06-22T02:07:27;20.65;;;15.32;;
23179;SDS011;11758;45.756;11.432;2023-06-22T02:09:54;22.17;;;16.80;;
23179;SDS011;11758;45.756;11.432;2023-06-22T02:12:21;20.60;;;17.70;;
23179;SDS011;11758;45.756;11.432;2023-06-22T02:14:48;26.00;;;17.23;;
23179;SDS011;11758;45.756;11.432;2023-06-22T02:17:14;24.20;;;16.85;;
23179;SDS011;11758;45.756;11.432;2023-06-22T02:19:41;28.25;;;16.98;;
23179;SDS011;11758;45.756;11.432;2023-06-22T02:22:07;25.98;;;17.90;;
23179;SDS011;11758;45.756;11.432;2023-06-22T02:24:33;24.23;;;17.23;;
23179;SDS011;11758;45.756;11.432;2023-06-22T02:27:00;23.02;;;16.58;;
23179;SDS011;11758;45.756;11.432;2023-06-22T02:29:26;26.13;;;17.25;;
23179;SDS011;11758;45.756;11.432;2023-06-22T02:31:52;25.33;;;16.33;;
23179;SDS011;11758;45.756;11.432;2023-06-22T02:34:18;25.55;;;17.60;;
23179;SDS011;11758;45.756;11.432;2023-06-22T02:36:45;25.15;;;17.77;;
23179;SDS011;11758;45.756;11.432;2023-06-22T02:39:19;21.02;;;17.15;;
23179;SDS011;11758;45.756;11.432;2023-06-22T02:41:47;22.92;;;16.65;;
23179;SDS011;11758;45.756;11.432;2023-06-22T02:44:13;24.55;;;16.02;;
23179;SDS011;11758;45.756;11.432;2023-06-22T02:46:39;22.08;;;14.88;;
23179;SDS011;11758;45.756;11.432;2023-06-22T02:49:05;19.90;;;13.65;;
23179;SDS011;11758;45.756;11.432;2023-06-22T02:51:32;21.23;;;13.95;;
23179;SDS011;11758;45.756;11.432;2023-06-22T02:54:02;23.00;;;14.95;;
23179;SDS011;11758;45.756;11.432;2023-06-22T02:56:28;20.92;;;15.02;;
23179;SDS011;11758;45.756;11.432;2023-06-22T02:58:55;22.35;;;15.52;;
23179;SDS011;11758;45.756;11.432;2023-06-22T03:01:26;22.60;;;16.35;;
23179;SDS011;11758;45.756;11.432;2023-06-22T03:03:53;26.60;;;14.48;;
23179;SDS011;11758;45.756;11.432;2023-06-22T03:06:20;23.58;;;14.43;;
23179;SDS011;11758;45.756;11.432;2023-06-22T03:08:57;18.40;;;13.35;;
23179;SDS011;11758;45.756;11.432;2023-06-22T03:11:23;23.48;;;13.60;;
23179;SDS011;11758;45.756;11.432;2023-06-22T03:13:49;24.75;;;15.52;;
23179;SDS011;11758;45.756;11.432;2023-06-22T03:16:17;19.65;;;14.60;;
23179;SDS011;11758;45.756;11.432;2023-06-22T03:18:43;17.65;;;12.70;;
23179;SDS011;11758;45.756;11.432;2023-06-22T03:21:09;29.15;;;14.43;;
23179;SDS011;11758;45.756;11.432;2023-06-22T03:23:35;23.15;;;15.40;;
23179;SDS011;11758;45.756;11.432;2023-06-22T03:26:02;21.38;;;15.85;;
23179;SDS011;11758;45.756;11.432;2023-06-22T03:28:29;26.85;;;16.33;;
23179;SDS011;11758;45.756;11.432;2023-06-22T03:30:57;23.25;;;15.77;;
23179;SDS011;11758;45.756;11.432;2023-06-22T03:33:23;26.08;;;15.65;;
23179;SDS011;11758;45.756;11.432;2023-06-22T03:35:49;21.90;;;15.85;;
23179;SDS011;11758;45.756;11.432;2023-06-22T03:38:16;19.98;;;15.75;;
23179;SDS011;11758;45.756;11.432;2023-06-22T03:40:42;19.25;;;16.58;;
23179;SDS011;11758;45.756;11.432;2023-06-22T03:43:08;26.13;;;16.67;;
23179;SDS011;11758;45.756;11.432;2023-06-22T03:45:34;23.52;;;16.95;;
23179;SDS011;11758;45.756;11.432;2023-06-22T03:48:00;24.50;;;17.05;;
23179;SDS011;11758;45.756;11.432;2023-06-22T03:50:27;22.42;;;13.00;;
23179;SDS011;11758;45.756;11.432;2023-06-22T03:52:53;19.33;;;13.82;;
23179;SDS011;11758;45.756;11.432;2023-06-22T03:55:19;21.75;;;14.05;;
23179;SDS011;11758;45.756;11.432;2023-06-22T03:57:46;20.92;;;14.30;;
23179;SDS011;11758;45.756;11.432;2023-06-22T04:00:12;20.27;;;13.02;;
23179;SDS011;11758;45.756;11.432;2023-06-22T04:02:38;21.65;;;14.13;;
23179;SDS011;11758;45.756;11.432;2023-06-22T04:05:04;18.27;;;13.50;;
23179;SDS011;11758;45.756;11.432;2023-06-22T04:07:31;21.13;;;13.50;;
23179;SDS011;11758;45.756;11.432;2023-06-22T04:09:57;16.63;;;11.60;;
23179;SDS011;11758;45.756;11.432;2023-06-22T04:12:23;19.52;;;11.70;;
23179;SDS011;11758;45.756;11.432;2023-06-22T04:14:49;22.48;;;11.48;;
23179;SDS011;11758;45.756;11.432;2023-06-22T04:17:15;19.77;;;12.43;;
23179;SDS011;11758;45.756;11.432;2023-06-22T04:19:42;23.45;;;12.30;;
23179;SDS011;11758;45.756;11.432;2023-06-22T04:22:08;24.63;;;12.10;;
23179;SDS011;11758;45.756;11.432;2023-06-22T04:24:35;21.02;;;12.32;;
23179;SDS011;11758;45.756;11.432;2023-06-22T04:27:01;20.35;;;11.77;;
23179;SDS011;11758;45.756;11.432;2023-06-22T04:29:28;17.60;;;13.63;;
23179;SDS011;11758;45.756;11.432;2023-06-22T04:31:55;18.13;;;13.48;;
23179;SDS011;11758;45.756;11.432;2023-06-22T04:34:23;21.30;;;14.68;;
23179;SDS011;11758;45.756;11.432;2023-06-22T04:36:52;22.35;;;13.20;;
23179;SDS011;11758;45.756;11.432;2023-06-22T04:39:19;15.80;;;12.68;;
23179;SDS011;11758;45.756;11.432;2023-06-22T04:41:45;21.20;;;13.15;;
23179;SDS011;11758;45.756;11.432;2023-06-22T04:44:12;14.85;;;11.32;;
23179;SDS011;11758;45.756;11.432;2023-06-22T04:46:39;58.53;;;30.38;;
23179;SDS011;11758;45.756;11.432;2023-06-22T04:49:06;47.05;;;24.58;;
23179;SDS011;11758;45.756;11.432;2023-06-22T04:51:43;37.72;;;19.67;;
23179;SDS011;11758;45.756;11.432;2023-06-22T04:54:09;87.80;;;38.25;;
23179;SDS011;11758;45.756;11.432;2023-06-22T04:56:36;88.50;;;40.42;;
23179;SDS011;11758;45.756;11.432;2023-06-22T04:59:02;37.17;;;18.15;;
23179;SDS011;11758;45.756;11.432;2023-06-22T05:01:29;37.63;;;19.67;;
23179;SDS011;11758;45.756;11.432;2023-06-22T05:04:00;25.60;;;16.83;;
23179;SDS011;11758;45.756;11.432;2023-06-22T05:06:27;38.42;;;18.10;;
23179;SDS011;11758;45.756;11.432;2023-06-22T05:08:53;29.40;;;17.75;;
23179;SDS011;11758;45.756;11.432;2023-06-22T05:11:24;21.90;;;17.75;;
23179;SDS011;11758;45.756;11.432;2023-06-22T05:13:50;24.75;;;19.08;;
23179;SDS011;11758;45.756;11.432;2023-06-22T05:16:16;19.30;;;13.90;;
23179;SDS011;11758;45.756;11.432;2023-06-22T05:18:42;19.85;;;11.43;;
23179;SDS011;11758;45.756;11.432;2023-06-22T05:21:08;28.08;;;18.15;;
23179;SDS011;11758;45.756;11.432;2023-06-22T05:23:34;27.27;;;21.35;;
23179;SDS011;11758;45.756;11.432;2023-06-22T05:26:01;30.00;;;18.35;;
23179;SDS011;11758;45.756;11.432;2023-06-22T05:28:27;24.23;;;18.17;;
23179;SDS011;11758;45.756;11.432;2023-06-22T05:30:53;24.52;;;17.77;;
23179;SDS011;11758;45.756;11.432;2023-06-22T05:33:19;29.67;;;17.55;;
23179;SDS011;11758;45.756;11.432;2023-06-22T05:35:45;29.20;;;17.95;;
23179;SDS011;11758;45.756;11.432;2023-06-22T05:38:12;21.33;;;17.17;;
23179;SDS011;11758;45.756;11.432;2023-06-22T05:40:38;37.13;;;19.63;;
23179;SDS011;11758;45.756;11.432;2023-06-22T05:43:04;18.80;;;13.40;;
23179;SDS011;11758;45.756;11.432;2023-06-22T05:45:30;14.45;;;9.38;;
23179;SDS011;11758;45.756;11.432;2023-06-22T05:47:56;18.27;;;9.75;;
23179;SDS011;11758;45.756;11.432;2023-06-22T05:50:22;12.95;;;9.75;;
23179;SDS011;11758;45.756;11.432;2023-06-22T05:52:48;15.93;;;10.45;;
23179;SDS011;11758;45.756;11.432;2023-06-22T05:55:14;18.55;;;10.45;;
23179;SDS011;11758;45.756;11.432;2023-06-22T05:57:40;20.02;;;10.23;;
23179;SDS011;11758;45.756;11.432;2023-06-22T06:00:07;14.57;;;9.70;;
23179;SDS011;11758;45.756;11.432;2023-06-22T06:02:35;17.67;;;10.48;;
23179;SDS011;11758;45.756;11.432;2023-06-22T06:05:02;22.15;;;11.45;;
23179;SDS011;11758;45.756;11.432;2023-06-22T06:07:28;22.48;;;12.15;;
23179;SDS011;11758;45.756;11.432;2023-06-22T06:09:55;20.58;;;16.30;;
23179;SDS011;11758;45.756;11.432;2023-06-22T06:12:21;21.17;;;16.77;;
23179;SDS011;11758;45.756;11.432;2023-06-22T06:14:47;27.08;;;17.42;;
23179;SDS011;11758;45.756;11.432;2023-06-22T06:17:13;23.98;;;16.00;;
23179;SDS011;11758;45.756;11.432;2023-06-22T06:19:39;26.10;;;13.63;;
23179;SDS011;11758;45.756;11.432;2023-06-22T06:22:05;23.05;;;10.73;;
23179;SDS011;11758;45.756;11.432;2023-06-22T06:24:32;20.75;;;10.32;;
23179;SDS011;11758;45.756;11.432;2023-06-22T06:26:58;20.75;;;10.25;;
23179;SDS011;11758;45.756;11.432;2023-06-22T06:29:24;22.35;;;11.63;;
23179;SDS011;11758;45.756;11.432;2023-06-22T06:31:52;19.20;;;11.88;;
23179;SDS011;11758;45.756;11.432;2023-06-22T06:34:20;20.92;;;14.85;;
23179;SDS011;11758;45.756;11.432;2023-06-22T06:36:46;23.90;;;15.13;;
23179;SDS011;11758;45.756;11.432;2023-06-22T06:39:12;20.88;;;15.68;;
23179;SDS011;11758;45.756;11.432;2023-06-22T06:41:38;37.25;;;25.98;;
23179;SDS011;11758;45.756;11.432;2023-06-22T06:44:14;26.30;;;18.70;;
23179;SDS011;11758;45.756;11.432;2023-06-22T06:46:40;35.60;;;19.58;;
23179;SDS011;11758;45.756;11.432;2023-06-22T06:49:07;18.90;;;11.60;;
23179;SDS011;11758;45.756;11.432;2023-06-22T06:51:33;27.20;;;18.92;;
23179;SDS011;11758;45.756;11.432;2023-06-22T06:54:01;30.75;;;21.15;;
23179;SDS011;11758;45.756;11.432;2023-06-22T06:56:28;28.42;;;19.63;;
23179;SDS011;11758;45.756;11.432;2023-06-22T06:58:55;33.65;;;20.00;;
23179;SDS011;11758;45.756;11.432;2023-06-22T07:01:23;33.75;;;21.60;;
23179;SDS011;11758;45.756;11.432;2023-06-22T07:03:49;29.52;;;19.33;;
23179;SDS011;11758;45.756;11.432;2023-06-22T07:06:16;26.25;;;14.27;;
23179;SDS011;11758;45.756;11.432;2023-06-22T07:08:43;16.45;;;11.15;;
23179;SDS011;11758;45.756;11.432;2023-06-22T07:11:10;18.10;;;10.20;;
23179;SDS011;11758;45.756;11.432;2023-06-22T07:13:37;22.65;;;10.48;;
23179;SDS011;11758;45.756;11.432;2023-06-22T07:16:03;26.52;;;13.07;;
23179;SDS011;11758;45.756;11.432;2023-06-22T07:18:30;30.38;;;20.10;;
23179;SDS011;11758;45.756;11.432;2023-06-22T07:20:56;28.58;;;18.60;;
23179;SDS011;11758;45.756;11.432;2023-06-22T07:23:23;26.88;;;19.55;;
23179;SDS011;11758;45.756;11.432;2023-06-22T07:25:49;27.25;;;19.17;;
23179;SDS011;11758;45.756;11.432;2023-06-22T07:28:16;34.85;;;20.35;;
23179;SDS011;11758;45.756;11.432;2023-06-22T07:30:43;32.97;;;19.48;;
23179;SDS011;11758;45.756;11.432;2023-06-22T07:33:17;26.40;;;19.33;;
23179;SDS011;11758;45.756;11.432;2023-06-22T07:35:49;30.77;;;20.08;;
23179;SDS011;11758;45.756;11.432;2023-06-22T07:38:17;37.35;;;20.60;;
23179;SDS011;11758;45.756;11.432;2023-06-22T07:40:43;26.05;;;18.27;;
23179;SDS011;11758;45.756;11.432;2023-06-22T07:43:10;28.02;;;17.27;;
23179;SDS011;11758;45.756;11.432;2023-06-22T07:45:39;25.27;;;17.90;;
23179;SDS011;11758;45.756;11.432;2023-06-22T07:48:20;27.48;;;17.17;;
23179;SDS011;11758;45.756;11.432;2023-06-22T07:50:47;22.23;;;17.63;;
23179;SDS011;11758;45.756;11.432;2023-06-22T07:53:13;25.17;;;16.38;;
23179;SDS011;11758;45.756;11.432;2023-06-22T07:55:39;27.52;;;19.15;;
23179;SDS011;11758;45.756;11.432;2023-06-22T07:58:05;27.05;;;17.52;;
23179;SDS011;11758;45.756;11.432;2023-06-22T08:00:33;23.40;;;16.83;;
23179;SDS011;11758;45.756;11.432;2023-06-22T08:02:59;30.63;;;17.05;;
23179;SDS011;11758;45.756;11.432;2023-06-22T08:05:25;23.10;;;17.48;;
23179;SDS011;11758;45.756;11.432;2023-06-22T08:07:51;34.30;;;18.58;;
23179;SDS011;11758;45.756;11.432;2023-06-22T08:10:18;34.22;;;18.75;;
23179;SDS011;11758;45.756;11.432;2023-06-22T08:12:44;29.02;;;17.38;;
23179;SDS011;11758;45.756;11.432;2023-06-22T08:15:11;30.02;;;18.08;;
23179;SDS011;11758;45.756;11.432;2023-06-22T08:17:38;28.92;;;17.05;;
23179;SDS011;11758;45.756;11.432;2023-06-22T08:20:05;25.60;;;19.13;;
23179;SDS011;11758;45.756;11.432;2023-06-22T08:22:35;34.28;;;18.95;;
23179;SDS011;11758;45.756;11.432;2023-06-22T08:25:08;27.42;;;19.75;;
23179;SDS011;11758;45.756;11.432;2023-06-22T08:27:36;31.90;;;20.95;;
23179;SDS011;11758;45.756;11.432;2023-06-22T08:30:04;38.25;;;19.98;;
23179;SDS011;11758;45.756;11.432;2023-06-22T08:32:30;30.02;;;19.33;;
23179;SDS011;11758;45.756;11.432;2023-06-22T08:34:57;30.48;;;19.27;;
23179;SDS011;11758;45.756;11.432;2023-06-22T08:37:24;39.58;;;21.52;;
23179;SDS011;11758;45.756;11.432;2023-06-22T08:39:55;40.97;;;18.83;;
23179;SDS011;11758;45.756;11.432;2023-06-22T08:42:22;35.70;;;18.70;;
23179;SDS011;11758;45.756;11.432;2023-06-22T08:44:49;29.83;;;17.52;;
23179;SDS011;11758;45.756;11.432;2023-06-22T08:47:15;27.65;;;17.30;;
23179;SDS011;11758;45.756;11.432;2023-06-22T08:49:41;36.00;;;17.95;;
23179;SDS011;11758;45.756;11.432;2023-06-22T08:52:07;29.38;;;17.58;;
23179;SDS011;11758;45.756;11.432;2023-06-22T08:54:34;35.47;;;17.48;;
23179;SDS011;11758;45.756;11.432;2023-06-22T08:57:01;29.52;;;17.65;;
23179;SDS011;11758;45.756;11.432;2023-06-22T08:59:28;28.17;;;18.92;;
23179;SDS011;11758;45.756;11.432;2023-06-22T09:01:54;35.72;;;17.60;;
23179;SDS011;11758;45.756;11.432;2023-06-22T09:04:21;23.67;;;17.27;;
23179;SDS011;11758;45.756;11.432;2023-06-22T09:06:48;23.35;;;17.05;;
23179;SDS011;11758;45.756;11.432;2023-06-22T09:09:15;24.52;;;17.10;;
23179;SDS011;11758;45.756;11.432;2023-06-22T09:11:41;30.02;;;17.55;;
23179;SDS011;11758;45.756;11.432;2023-06-22T09:14:08;35.78;;;17.45;;
23179;SDS011;11758;45.756;11.432;2023-06-22T09:16:34;30.98;;;18.67;;
23179;SDS011;11758;45.756;11.432;2023-06-22T09:19:01;29.30;;;18.30;;
23179;SDS011;11758;45.756;11.432;2023-06-22T09:21:27;24.25;;;17.52;;
23179;SDS011;11758;45.756;11.432;2023-06-22T09:23:53;28.13;;;18.13;;
23179;SDS011;11758;45.756;11.432;2023-06-22T09:26:20;26.35;;;17.45;;
23179;SDS011;11758;45.756;11.432;2023-06-22T09:28:49;29.15;;;16.58;;
23179;SDS011;11758;45.756;11.432;2023-06-22T09:31:17;23.73;;;15.77;;
23179;SDS011;11758;45.756;11.432;2023-06-22T09:33:53;29.20;;;18.00;;
23179;SDS011;11758;45.756;11.432;2023-06-22T09:36:20;31.92;;;18.35;;
23179;SDS011;11758;45.756;11.432;2023-06-22T09:38:47;23.77;;;17.33;;
23179;SDS011;11758;45.756;11.432;2023-06-22T09:41:13;32.63;;;15.45;;
23179;SDS011;11758;45.756;11.432;2023-06-22T09:43:42;25.10;;;15.93;;
23179;SDS011;11758;45.756;11.432;2023-06-22T09:46:08;23.05;;;16.55;;
23179;SDS011;11758;45.756;11.432;2023-06-22T09:48:35;21.98;;;16.40;;
23179;SDS011;11758;45.756;11.432;2023-06-22T09:51:25;19.48;;;15.63;;
23179;SDS011;11758;45.756;11.432;2023-06-22T09:53:52;25.08;;;15.18;;
23179;SDS011;11758;45.756;11.432;2023-06-22T09:56:22;25.40;;;14.82;;
23179;SDS011;11758;45.756;11.432;2023-06-22T09:58:48;29.42;;;15.80;;
23179;SDS011;11758;45.756;11.432;2023-06-22T10:01:17;23.25;;;15.23;;
23179;SDS011;11758;45.756;11.432;2023-06-22T10:03:43;20.85;;;15.07;;
23179;SDS011;11758;45.756;11.432;2023-06-22T10:06:10;22.90;;;14.02;;
23179;SDS011;11758;45.756;11.432;2023-06-22T10:08:36;24.48;;;15.07;;
23179;SDS011;11758;45.756;11.432;2023-06-22T10:11:03;24.77;;;15.27;;
23179;SDS011;11758;45.756;11.432;2023-06-22T10:13:29;18.40;;;15.13;;
23179;SDS011;11758;45.756;11.432;2023-06-22T10:15:56;25.88;;;14.95;;
23179;SDS011;11758;45.756;11.432;2023-06-22T10:18:22;25.52;;;15.85;;
23179;SDS011;11758;45.756;11.432;2023-06-22T10:20:49;28.02;;;14.85;;
23179;SDS011;11758;45.756;11.432;2023-06-22T10:23:19;27.23;;;15.07;;
23179;SDS011;11758;45.756;11.432;2023-06-22T10:25:45;21.20;;;15.32;;
23179;SDS011;11758;45.756;11.432;2023-06-22T10:28:13;30.77;;;17.08;;
23179;SDS011;11758;45.756;11.432;2023-06-22T10:30:40;28.95;;;17.38;;
23179;SDS011;11758;45.756;11.432;2023-06-22T10:33:10;27.73;;;18.58;;
23179;SDS011;11758;45.756;11.432;2023-06-22T10:35:38;27.35;;;16.95;;
23179;SDS011;11758;45.756;11.432;2023-06-22T10:38:14;32.90;;;16.33;;
23179;SDS011;11758;45.756;11.432;2023-06-22T10:40:40;19.08;;;15.23;;
23179;SDS011;11758;45.756;11.432;2023-06-22T10:43:06;28.35;;;16.35;;
23179;SDS011;11758;45.756;11.432;2023-06-22T10:45:32;31.27;;;16.38;;
23179;SDS011;11758;45.756;11.432;2023-06-22T10:47:58;23.35;;;16.63;;
23179;SDS011;11758;45.756;11.432;2023-06-22T10:50:25;35.67;;;16.50;;
23179;SDS011;11758;45.756;11.432;2023-06-22T10:52:51;26.50;;;13.77;;
23179;SDS011;11758;45.756;11.432;2023-06-22T10:55:17;41.55;;;15.20;;
23179;SDS011;11758;45.756;11.432;2023-06-22T10:57:43;26.13;;;14.32;;
23179;SDS011;11758;45.756;11.432;2023-06-22T11:00:13;25.30;;;13.95;;
23179;SDS011;11758;45.756;11.432;2023-06-22T11:02:41;26.95;;;13.43;;
23179;SDS011;11758;45.756;11.432;2023-06-22T11:05:07;21.40;;;14.38;;
23179;SDS011;11758;45.756;11.432;2023-06-22T11:07:35;22.90;;;13.68;;
23179;SDS011;11758;45.756;11.432;2023-06-22T11:10:04;18.70;;;12.27;;
23179;SDS011;11758;45.756;11.432;2023-06-22T11:12:30;20.60;;;13.75;;
23179;SDS011;11758;45.756;11.432;2023-06-22T11:14:56;18.35;;;12.82;;
23179;SDS011;11758;45.756;11.432;2023-06-22T11:17:23;21.27;;;13.43;;
23179;SDS011;11758;45.756;11.432;2023-06-22T11:19:50;21.13;;;13.07;;
23179;SDS011;11758;45.756;11.432;2023-06-22T11:22:16;24.13;;;14.07;;
23179;SDS011;11758;45.756;11.432;2023-06-22T11:24:42;22.58;;;12.80;;
23179;SDS011;11758;45.756;11.432;2023-06-22T11:27:09;18.67;;;12.85;;
23179;SDS011;11758;45.756;11.432;2023-06-22T11:29:35;19.42;;;12.88;;
23179;SDS011;11758;45.756;11.432;2023-06-22T11:32:01;27.90;;;12.70;;
23179;SDS011;11758;45.756;11.432;2023-06-22T11:34:28;22.83;;;13.00;;
23179;SDS011;11758;45.756;11.432;2023-06-22T11:36:54;23.83;;;13.10;;
23179;SDS011;11758;45.756;11.432;2023-06-22T11:39:22;20.60;;;13.32;;
23179;SDS011;11758;45.756;11.432;2023-06-22T11:41:48;22.55;;;13.80;;
23179;SDS011;11758;45.756;11.432;2023-06-22T11:44:14;31.65;;;13.30;;
23179;SDS011;11758;45.756;11.432;2023-06-22T11:46:40;34.10;;;13.65;;
23179;SDS011;11758;45.756;11.432;2023-06-22T11:49:06;22.63;;;13.38;;
23179;SDS011;11758;45.756;11.432;2023-06-22T11:51:32;28.60;;;13.05;;
23179;SDS011;11758;45.756;11.432;2023-06-22T11:53:59;29.40;;;13.65;;
23179;SDS011;11758;45.756;11.432;2023-06-22T11:56:25;25.00;;;13.30;;
23179;SDS011;11758;45.756;11.432;2023-06-22T11:58:52;20.10;;;12.95;;
23179;SDS011;11758;45.756;11.432;2023-06-22T12:01:19;26.10;;;13.38;;
23179;SDS011;11758;45.756;11.432;2023-06-22T12:03:46;20.58;;;12.80;;
23179;SDS011;11758;45.756;11.432;2023-06-22T12:06:13;24.00;;;12.50;;
23179;SDS011;11758;45.756;11.432;2023-06-22T12:08:39;24.88;;;13.35;;
23179;SDS011;11758;45.756;11.432;2023-06-22T12:11:05;21.98;;;13.00;;
23179;SDS011;11758;45.756;11.432;2023-06-22T12:13:31;27.65;;;13.80;;
23179;SDS011;11758;45.756;11.432;2023-06-22T12:15:57;24.73;;;12.90;;
23179;SDS011;11758;45.756;11.432;2023-06-22T12:18:24;18.85;;;13.88;;
23179;SDS011;11758;45.756;11.432;2023-06-22T12:20:50;25.40;;;13.20;;
23179;SDS011;11758;45.756;11.432;2023-06-22T12:23:16;21.67;;;13.07;;
23179;SDS011;11758;45.756;11.432;2023-06-22T12:25:45;22.83;;;12.10;;
23179;SDS011;11758;45.756;11.432;2023-06-22T12:28:11;20.20;;;11.82;;
23179;SDS011;11758;45.756;11.432;2023-06-22T12:30:37;19.13;;;11.90;;
23179;SDS011;11758;45.756;11.432;2023-06-22T12:33:07;19.27;;;12.63;;
23179;SDS011;11758;45.756;11.432;2023-06-22T12:35:37;24.92;;;12.88;;
23179;SDS011;11758;45.756;11.432;2023-06-22T12:38:03;18.00;;;12.13;;
23179;SDS011;11758;45.756;11.432;2023-06-22T12:40:31;24.23;;;12.43;;
23179;SDS011;11758;45.756;11.432;2023-06-22T12:42:58;16.55;;;11.82;;
23179;SDS011;11758;45.756;11.432;2023-06-22T12:45:24;20.40;;;11.90;;
23179;SDS011;11758;45.756;11.432;2023-06-22T12:47:54;20.13;;;12.45;;
23179;SDS011;11758;45.756;11.432;2023-06-22T12:50:20;23.30;;;12.32;;
23179;SDS011;11758;45.756;11.432;2023-06-22T12:52:46;22.02;;;12.32;;
23179;SDS011;11758;45.756;11.432;2023-06-22T12:55:12;24.00;;;11.80;;
23179;SDS011;11758;45.756;11.432;2023-06-22T12:57:38;14.90;;;11.20;;
23179;SDS011;11758;45.756;11.432;2023-06-22T13:00:04;24.30;;;11.48;;
23179;SDS011;11758;45.756;11.432;2023-06-22T13:02:33;24.02;;;12.55;;
23179;SDS011;11758;45.756;11.432;2023-06-22T13:04:59;26.98;;;11.95;;
23179;SDS011;11758;45.756;11.432;2023-06-22T13:07:25;16.17;;;12.32;;
23179;SDS011;11758;45.756;11.432;2023-06-22T13:09:54;23.60;;;11.63;;
23179;SDS011;11758;45.756;11.432;2023-06-22T13:12:25;20.40;;;12.55;;
23179;SDS011;11758;45.756;11.432;2023-06-22T13:14:51;22.83;;;11.27;;
23179;SDS011;11758;45.756;11.432;2023-06-22T13:17:17;26.55;;;11.88;;
23179;SDS011;11758;45.756;11.432;2023-06-22T13:19:44;16.27;;;12.00;;
23179;SDS011;11758;45.756;11.432;2023-06-22T13:22:39;22.42;;;12.43;;
23179;SDS011;11758;45.756;11.432;2023-06-22T13:25:07;19.08;;;11.15;;
23179;SDS011;11758;45.756;11.432;2023-06-22T13:27:38;23.50;;;12.30;;
23179;SDS011;11758;45.756;11.432;2023-06-22T13:30:05;24.73;;;11.85;;
23179;SDS011;11758;45.756;11.432;2023-06-22T13:32:32;18.75;;;11.57;;
23179;SDS011;11758;45.756;11.432;2023-06-22T13:34:58;26.17;;;11.45;;
23179;SDS011;11758;45.756;11.432;2023-06-22T13:37:25;23.73;;;12.27;;
23179;SDS011;11758;45.756;11.432;2023-06-22T13:39:52;20.08;;;12.25;;
23179;SDS011;11758;45.756;11.432;2023-06-22T13:42:22;20.20;;;12.05;;
23179;SDS011;11758;45.756;11.432;2023-06-22T13:44:48;15.75;;;11.75;;
23179;SDS011;11758;45.756;11.432;2023-06-22T13:47:15;22.02;;;12.13;;
23179;SDS011;11758;45.756;11.432;2023-06-22T13:49:41;23.67;;;13.38;;
23179;SDS011;11758;45.756;11.432;2023-06-22T13:52:07;24.10;;;11.80;;
23179;SDS011;11758;45.756;11.432;2023-06-22T13:54:35;24.90;;;11.32;;
23179;SDS011;11758;45.756;11.432;2023-06-22T13:57:02;22.85;;;11.63;;
23179;SDS011;11758;45.756;11.432;2023-06-22T13:59:28;16.45;;;11.48;;
23179;SDS011;11758;45.756;11.432;2023-06-22T14:01:55;18.23;;;11.60;;
23179;SDS011;11758;45.756;11.432;2023-06-22T14:04:22;18.73;;;11.85;;
23179;SDS011;11758;45.756;11.432;2023-06-22T14:06:49;17.85;;;11.35;;
23179;SDS011;11758;45.756;11.432;2023-06-22T14:09:15;18.20;;;11.65;;
23179;SDS011;11758;45.756;11.432;2023-06-22T14:11:41;20.15;;;11.70;;
23179;SDS011;11758;45.756;11.432;2023-06-22T14:14:09;24.02;;;12.00;;
23179;SDS011;11758;45.756;11.432;2023-06-22T14:16:35;24.10;;;11.65;;
23179;SDS011;11758;45.756;11.432;2023-06-22T14:19:02;28.17;;;13.18;;